sensor_id;sensor_type;location;lat;lon;timestamp;P1;durP1;ratioP1;P2;durP2;ratioP2
48935;SDS011;34745;52.276;10.528;2023-06-05T00:00:00;7.93;;;2.57;;
48935;SDS011;34745;52.276;10.528;2023-06-05T00:02:28;2.77;;;2.53;;
48935;SDS011;34745;52.276;10.528;2023-06-05T00:04:56;2.87;;;2.60;;
48935;SDS011;34745;52.276;10.528;2023-06-05T00:07:23;4.37;;;2.70;;
48935;SDS011;34745;52.276;10.528;2023-06-05T00:09:51;5.10;;;3.20;;
48935;SDS011;34745;52.276;10.528;2023-06-05T00:12:17;4.17;;;3.03;;
48935;SDS011;34745;52.276;10.528;2023-06-05T00:14:45;6.20;;;3.50;;
48935;SDS011;34745;52.276;10.528;2023-06-05T00:17:12;7.00;;;3.17;;
48935;SDS011;34745;52.276;10.528;2023-06-05T00:19:41;7.40;;;3.20;;
48935;SDS011;34745;52.276;10.528;2023-06-05T00:22:08;5.10;;;2.87;;
48935;SDS011;34745;52.276;10.528;2023-06-05T00:24:36;6.60;;;3.00;;
48935;SDS011;34745;52.276;10.528;2023-06-05T00:27:03;4.03;;;2.87;;
48935;SDS011;34745;52.276;10.528;2023-06-05T00:29:30;2.87;;;2.47;;
48935;SDS011;34745;52.276;10.528;2023-06-05T00:31:57;3.27;;;2.93;;
48935;SDS011;34745;52.276;10.528;2023-06-05T00:34:24;5.50;;;3.30;;
48935;SDS011;34745;52.276;10.528;2023-06-05T00:36:53;6.57;;;2.90;;
48935;SDS011;34745;52.276;10.528;2023-06-05T00:39:20;5.00;;;2.80;;
48935;SDS011;34745;52.276;10.528;2023-06-05T00:41:47;2.93;;;2.53;;
48935;SDS011;34745;52.276;10.528;2023-06-05T00:44:14;6.70;;;2.80;;
48935;SDS011;34745;52.276;10.528;2023-06-05T00:46:42;4.27;;;2.80;;
48935;SDS011;34745;52.276;10.528;2023-06-05T00:49:10;6.43;;;2.70;;
48935;SDS011;34745;52.276;10.528;2023-06-05T00:51:37;2.60;;;2.40;;
48935;SDS011;34745;52.276;10.528;2023-06-05T00:54:09;4.17;;;2.70;;
48935;SDS011;34745;52.276;10.528;2023-06-05T00:56:37;2.63;;;2.00;;
48935;SDS011;34745;52.276;10.528;2023-06-05T00:59:06;3.57;;;2.33;;
48935;SDS011;34745;52.276;10.528;2023-06-05T01:01:33;5.10;;;2.20;;
48935;SDS011;34745;52.276;10.528;2023-06-05T01:04:01;4.83;;;2.83;;
48935;SDS011;34745;52.276;10.528;2023-06-05T01:06:28;4.43;;;2.80;;
48935;SDS011;34745;52.276;10.528;2023-06-05T01:09:01;3.40;;;2.80;;
48935;SDS011;34745;52.276;10.528;2023-06-05T01:11:34;2.40;;;2.10;;
48935;SDS011;34745;52.276;10.528;2023-06-05T01:14:08;4.67;;;2.17;;
48935;SDS011;34745;52.276;10.528;2023-06-05T01:16:43;4.23;;;2.63;;
48935;SDS011;34745;52.276;10.528;2023-06-05T01:19:14;7.53;;;2.83;;
48935;SDS011;34745;52.276;10.528;2023-06-05T01:21:41;4.53;;;2.53;;
48935;SDS011;34745;52.276;10.528;2023-06-05T01:24:09;10.83;;;2.70;;
48935;SDS011;34745;52.276;10.528;2023-06-05T01:26:41;4.30;;;2.53;;
48935;SDS011;34745;52.276;10.528;2023-06-05T01:29:20;5.37;;;2.43;;
48935;SDS011;34745;52.276;10.528;2023-06-05T01:31:51;4.23;;;2.60;;
48935;SDS011;34745;52.276;10.528;2023-06-05T01:34:25;4.50;;;2.30;;
48935;SDS011;34745;52.276;10.528;2023-06-05T01:36:53;4.83;;;2.40;;
48935;SDS011;34745;52.276;10.528;2023-06-05T01:39:23;3.67;;;2.60;;
48935;SDS011;34745;52.276;10.528;2023-06-05T01:41:52;4.57;;;2.40;;
48935;SDS011;34745;52.276;10.528;2023-06-05T01:44:21;2.87;;;2.60;;
48935;SDS011;34745;52.276;10.528;2023-06-05T01:46:49;3.93;;;2.60;;
48935;SDS011;34745;52.276;10.528;2023-06-05T01:49:17;4.40;;;2.60;;
48935;SDS011;34745;52.276;10.528;2023-06-05T01:51:45;5.80;;;2.43;;
48935;SDS011;34745;52.276;10.528;2023-06-05T01:54:12;2.80;;;2.50;;
48935;SDS011;34745;52.276;10.528;2023-06-05T01:56:43;11.47;;;2.70;;
48935;SDS011;34745;52.276;10.528;2023-06-05T01:59:10;5.03;;;2.50;;
48935;SDS011;34745;52.276;10.528;2023-06-05T02:01:37;3.63;;;2.50;;
48935;SDS011;34745;52.276;10.528;2023-06-05T02:04:04;4.30;;;2.20;;
48935;SDS011;34745;52.276;10.528;2023-06-05T02:06:32;3.27;;;2.30;;
48935;SDS011;34745;52.276;10.528;2023-06-05T02:09:08;5.43;;;2.57;;
48935;SDS011;34745;52.276;10.528;2023-06-05T02:11:36;5.10;;;2.83;;
48935;SDS011;34745;52.276;10.528;2023-06-05T02:14:10;3.97;;;2.70;;
48935;SDS011;34745;52.276;10.528;2023-06-05T02:16:41;2.67;;;2.30;;
48935;SDS011;34745;52.276;10.528;2023-06-05T02:19:09;4.03;;;2.93;;
48935;SDS011;34745;52.276;10.528;2023-06-05T02:21:37;7.00;;;2.47;;
48935;SDS011;34745;52.276;10.528;2023-06-05T02:24:04;4.67;;;2.33;;
48935;SDS011;34745;52.276;10.528;2023-06-05T02:26:31;3.23;;;2.40;;
48935;SDS011;34745;52.276;10.528;2023-06-05T02:28:59;4.13;;;2.70;;
48935;SDS011;34745;52.276;10.528;2023-06-05T02:31:27;6.10;;;2.73;;
48935;SDS011;34745;52.276;10.528;2023-06-05T02:33:57;4.80;;;2.53;;
48935;SDS011;34745;52.276;10.528;2023-06-05T02:36:24;4.67;;;2.50;;
48935;SDS011;34745;52.276;10.528;2023-06-05T02:38:51;4.47;;;2.53;;
48935;SDS011;34745;52.276;10.528;2023-06-05T02:41:19;3.93;;;2.40;;
48935;SDS011;34745;52.276;10.528;2023-06-05T02:43:47;3.33;;;2.73;;
48935;SDS011;34745;52.276;10.528;2023-06-05T02:46:15;5.73;;;2.87;;
48935;SDS011;34745;52.276;10.528;2023-06-05T02:48:43;7.27;;;3.03;;
48935;SDS011;34745;52.276;10.528;2023-06-05T02:51:10;3.33;;;2.67;;
48935;SDS011;34745;52.276;10.528;2023-06-05T02:53:37;6.23;;;2.90;;
48935;SDS011;34745;52.276;10.528;2023-06-05T02:56:04;6.17;;;3.30;;
48935;SDS011;34745;52.276;10.528;2023-06-05T02:58:32;3.43;;;2.60;;
48935;SDS011;34745;52.276;10.528;2023-06-05T03:01:00;5.97;;;2.70;;
48935;SDS011;34745;52.276;10.528;2023-06-05T03:03:31;5.30;;;2.77;;
48935;SDS011;34745;52.276;10.528;2023-06-05T03:06:00;3.97;;;2.80;;
48935;SDS011;34745;52.276;10.528;2023-06-05T03:08:31;3.70;;;2.60;;
48935;SDS011;34745;52.276;10.528;2023-06-05T03:10:59;7.43;;;3.10;;
48935;SDS011;34745;52.276;10.528;2023-06-05T03:13:26;4.30;;;2.80;;
48935;SDS011;34745;52.276;10.528;2023-06-05T03:15:54;5.70;;;2.63;;
48935;SDS011;34745;52.276;10.528;2023-06-05T03:18:23;4.73;;;3.00;;
48935;SDS011;34745;52.276;10.528;2023-06-05T03:20:53;7.20;;;2.90;;
48935;SDS011;34745;52.276;10.528;2023-06-05T03:23:25;4.40;;;2.83;;
48935;SDS011;34745;52.276;10.528;2023-06-05T03:25:54;5.77;;;2.70;;
48935;SDS011;34745;52.276;10.528;2023-06-05T03:28:21;3.50;;;2.80;;
48935;SDS011;34745;52.276;10.528;2023-06-05T03:30:49;8.37;;;2.93;;
48935;SDS011;34745;52.276;10.528;2023-06-05T03:33:17;10.83;;;3.00;;
48935;SDS011;34745;52.276;10.528;2023-06-05T03:35:44;6.20;;;2.93;;
48935;SDS011;34745;52.276;10.528;2023-06-05T03:38:15;3.47;;;2.70;;
48935;SDS011;34745;52.276;10.528;2023-06-05T03:40:44;5.07;;;2.83;;
48935;SDS011;34745;52.276;10.528;2023-06-05T03:43:11;5.50;;;2.93;;
48935;SDS011;34745;52.276;10.528;2023-06-05T03:45:38;6.03;;;3.20;;
48935;SDS011;34745;52.276;10.528;2023-06-05T03:48:07;5.07;;;3.23;;
48935;SDS011;34745;52.276;10.528;2023-06-05T03:50:35;6.30;;;3.60;;
48935;SDS011;34745;52.276;10.528;2023-06-05T03:53:05;4.77;;;2.93;;
48935;SDS011;34745;52.276;10.528;2023-06-05T03:55:32;6.53;;;2.93;;
48935;SDS011;34745;52.276;10.528;2023-06-05T03:58:13;7.50;;;3.10;;
48935;SDS011;34745;52.276;10.528;2023-06-05T04:00:40;5.23;;;2.80;;
48935;SDS011;34745;52.276;10.528;2023-06-05T04:03:09;4.70;;;2.97;;
48935;SDS011;34745;52.276;10.528;2023-06-05T04:05:37;5.50;;;2.83;;
48935;SDS011;34745;52.276;10.528;2023-06-05T04:08:05;7.57;;;3.10;;
48935;SDS011;34745;52.276;10.528;2023-06-05T04:10:32;9.03;;;2.90;;
48935;SDS011;34745;52.276;10.528;2023-06-05T04:13:00;6.87;;;2.97;;
48935;SDS011;34745;52.276;10.528;2023-06-05T04:15:28;6.80;;;3.47;;
48935;SDS011;34745;52.276;10.528;2023-06-05T04:17:55;7.43;;;3.17;;
48935;SDS011;34745;52.276;10.528;2023-06-05T04:20:22;6.60;;;3.40;;
48935;SDS011;34745;52.276;10.528;2023-06-05T04:22:50;7.83;;;3.43;;
48935;SDS011;34745;52.276;10.528;2023-06-05T04:25:17;3.57;;;2.50;;
48935;SDS011;34745;52.276;10.528;2023-06-05T04:27:45;7.77;;;3.10;;
48935;SDS011;34745;52.276;10.528;2023-06-05T04:30:14;4.53;;;3.10;;
48935;SDS011;34745;52.276;10.528;2023-06-05T04:32:42;10.27;;;2.93;;
48935;SDS011;34745;52.276;10.528;2023-06-05T04:35:19;5.13;;;3.20;;
48935;SDS011;34745;52.276;10.528;2023-06-05T04:37:47;7.47;;;3.00;;
48935;SDS011;34745;52.276;10.528;2023-06-05T04:40:15;5.70;;;2.83;;
48935;SDS011;34745;52.276;10.528;2023-06-05T04:42:44;8.73;;;2.90;;
48935;SDS011;34745;52.276;10.528;2023-06-05T04:45:11;8.63;;;3.47;;
48935;SDS011;34745;52.276;10.528;2023-06-05T04:47:39;7.77;;;3.20;;
48935;SDS011;34745;52.276;10.528;2023-06-05T04:50:08;8.77;;;3.20;;
48935;SDS011;34745;52.276;10.528;2023-06-05T04:52:48;9.13;;;3.40;;
48935;SDS011;34745;52.276;10.528;2023-06-05T04:55:15;7.93;;;3.87;;
48935;SDS011;34745;52.276;10.528;2023-06-05T04:57:42;5.80;;;3.00;;
48935;SDS011;34745;52.276;10.528;2023-06-05T05:00:09;9.37;;;3.00;;
48935;SDS011;34745;52.276;10.528;2023-06-05T05:02:38;6.20;;;3.20;;
48935;SDS011;34745;52.276;10.528;2023-06-05T05:05:05;12.00;;;3.20;;
48935;SDS011;34745;52.276;10.528;2023-06-05T05:07:35;4.60;;;2.93;;
48935;SDS011;34745;52.276;10.528;2023-06-05T05:10:02;6.73;;;3.27;;
48935;SDS011;34745;52.276;10.528;2023-06-05T05:12:29;7.63;;;3.67;;
48935;SDS011;34745;52.276;10.528;2023-06-05T05:14:56;8.77;;;3.80;;
48935;SDS011;34745;52.276;10.528;2023-06-05T05:17:23;4.90;;;3.40;;
48935;SDS011;34745;52.276;10.528;2023-06-05T05:19:50;4.97;;;3.07;;
48935;SDS011;34745;52.276;10.528;2023-06-05T05:22:18;5.73;;;3.40;;
48935;SDS011;34745;52.276;10.528;2023-06-05T05:24:46;12.27;;;3.50;;
48935;SDS011;34745;52.276;10.528;2023-06-05T05:27:12;9.93;;;4.40;;
48935;SDS011;34745;52.276;10.528;2023-06-05T05:29:40;6.47;;;3.63;;
48935;SDS011;34745;52.276;10.528;2023-06-05T05:32:07;9.50;;;3.70;;
48935;SDS011;34745;52.276;10.528;2023-06-05T05:34:34;10.00;;;5.13;;
48935;SDS011;34745;52.276;10.528;2023-06-05T05:37:01;9.87;;;4.73;;
48935;SDS011;34745;52.276;10.528;2023-06-05T05:39:31;6.57;;;3.83;;
48935;SDS011;34745;52.276;10.528;2023-06-05T05:41:58;19.27;;;4.90;;
48935;SDS011;34745;52.276;10.528;2023-06-05T05:44:27;5.13;;;3.50;;
48935;SDS011;34745;52.276;10.528;2023-06-05T05:46:54;7.83;;;3.07;;
48935;SDS011;34745;52.276;10.528;2023-06-05T05:49:21;7.43;;;3.53;;
48935;SDS011;34745;52.276;10.528;2023-06-05T05:51:48;9.83;;;3.43;;
48935;SDS011;34745;52.276;10.528;2023-06-05T05:54:16;10.53;;;3.37;;
48935;SDS011;34745;52.276;10.528;2023-06-05T05:56:45;7.73;;;3.40;;
48935;SDS011;34745;52.276;10.528;2023-06-05T05:59:13;8.33;;;2.97;;
48935;SDS011;34745;52.276;10.528;2023-06-05T06:01:41;5.40;;;3.23;;
48935;SDS011;34745;52.276;10.528;2023-06-05T06:04:08;7.27;;;3.07;;
48935;SDS011;34745;52.276;10.528;2023-06-05T06:06:36;6.40;;;3.13;;
48935;SDS011;34745;52.276;10.528;2023-06-05T06:09:04;5.47;;;3.30;;
48935;SDS011;34745;52.276;10.528;2023-06-05T06:11:32;7.23;;;3.23;;
48935;SDS011;34745;52.276;10.528;2023-06-05T06:14:00;10.40;;;3.50;;
48935;SDS011;34745;52.276;10.528;2023-06-05T06:16:27;7.60;;;3.33;;
48935;SDS011;34745;52.276;10.528;2023-06-05T06:18:54;10.70;;;3.60;;
48935;SDS011;34745;52.276;10.528;2023-06-05T06:21:23;3.50;;;2.60;;
48935;SDS011;34745;52.276;10.528;2023-06-05T06:23:52;4.80;;;2.70;;
48935;SDS011;34745;52.276;10.528;2023-06-05T06:26:18;6.20;;;2.70;;
48935;SDS011;34745;52.276;10.528;2023-06-05T06:28:46;5.20;;;2.30;;
48935;SDS011;34745;52.276;10.528;2023-06-05T06:31:14;3.70;;;2.50;;
48935;SDS011;34745;52.276;10.528;2023-06-05T06:33:42;9.67;;;2.93;;
48935;SDS011;34745;52.276;10.528;2023-06-05T06:36:10;6.37;;;3.37;;
48935;SDS011;34745;52.276;10.528;2023-06-05T06:38:38;4.90;;;2.73;;
48935;SDS011;34745;52.276;10.528;2023-06-05T06:41:05;7.10;;;3.10;;
48935;SDS011;34745;52.276;10.528;2023-06-05T06:43:33;7.30;;;3.07;;
48935;SDS011;34745;52.276;10.528;2023-06-05T06:46:01;12.00;;;3.07;;
48935;SDS011;34745;52.276;10.528;2023-06-05T06:48:30;4.50;;;2.57;;
48935;SDS011;34745;52.276;10.528;2023-06-05T06:50:57;13.27;;;2.87;;
48935;SDS011;34745;52.276;10.528;2023-06-05T06:53:24;6.73;;;3.07;;
48935;SDS011;34745;52.276;10.528;2023-06-05T06:55:51;5.70;;;3.00;;
48935;SDS011;34745;52.276;10.528;2023-06-05T06:58:18;12.20;;;3.10;;
48935;SDS011;34745;52.276;10.528;2023-06-05T07:00:45;7.93;;;3.22;;
48935;SDS011;34745;52.276;10.528;2023-06-05T07:03:13;10.77;;;3.20;;
48935;SDS011;34745;52.276;10.528;2023-06-05T07:05:42;7.63;;;2.92;;
48935;SDS011;34745;52.276;10.528;2023-06-05T07:08:09;14.93;;;4.10;;
48935;SDS011;34745;52.276;10.528;2023-06-05T07:10:36;9.93;;;3.38;;
48935;SDS011;34745;52.276;10.528;2023-06-05T07:13:03;7.45;;;2.70;;
48935;SDS011;34745;52.276;10.528;2023-06-05T07:15:30;10.10;;;3.20;;
48935;SDS011;34745;52.276;10.528;2023-06-05T07:17:57;6.80;;;3.00;;
48935;SDS011;34745;52.276;10.528;2023-06-05T07:20:26;11.43;;;3.10;;
48935;SDS011;34745;52.276;10.528;2023-06-05T07:22:54;13.20;;;4.35;;
48935;SDS011;34745;52.276;10.528;2023-06-05T07:25:21;5.88;;;3.63;;
48935;SDS011;34745;52.276;10.528;2023-06-05T07:27:50;8.82;;;3.80;;
48935;SDS011;34745;52.276;10.528;2023-06-05T07:30:17;21.02;;;8.60;;
48935;SDS011;34745;52.276;10.528;2023-06-05T07:32:45;20.23;;;8.10;;
48935;SDS011;34745;52.276;10.528;2023-06-05T07:35:12;12.82;;;6.50;;
48935;SDS011;34745;52.276;10.528;2023-06-05T07:37:41;10.95;;;3.40;;
48935;SDS011;34745;52.276;10.528;2023-06-05T07:40:09;10.95;;;4.30;;
48935;SDS011;34745;52.276;10.528;2023-06-05T07:42:37;4.18;;;2.90;;
48935;SDS011;34745;52.276;10.528;2023-06-05T07:45:04;3.83;;;2.30;;
48935;SDS011;34745;52.276;10.528;2023-06-05T07:47:32;9.18;;;2.75;;
48935;SDS011;34745;52.276;10.528;2023-06-05T07:50:00;11.73;;;3.00;;
48935;SDS011;34745;52.276;10.528;2023-06-05T07:52:30;5.53;;;2.78;;
48935;SDS011;34745;52.276;10.528;2023-06-05T07:54:57;6.30;;;2.67;;
48935;SDS011;34745;52.276;10.528;2023-06-05T07:57:26;3.60;;;2.40;;
48935;SDS011;34745;52.276;10.528;2023-06-05T07:59:55;8.38;;;2.35;;
48935;SDS011;34745;52.276;10.528;2023-06-05T08:02:22;2.40;;;2.17;;
48935;SDS011;34745;52.276;10.528;2023-06-05T08:04:50;3.80;;;2.40;;
48935;SDS011;34745;52.276;10.528;2023-06-05T08:07:17;7.72;;;2.60;;
48935;SDS011;34745;52.276;10.528;2023-06-05T08:09:44;3.50;;;2.45;;
48935;SDS011;34745;52.276;10.528;2023-06-05T08:12:11;3.80;;;2.67;;
48935;SDS011;34745;52.276;10.528;2023-06-05T08:14:40;6.32;;;2.53;;
48935;SDS011;34745;52.276;10.528;2023-06-05T08:17:07;4.25;;;1.98;;
48935;SDS011;34745;52.276;10.528;2023-06-05T08:19:34;5.05;;;2.40;;
48935;SDS011;34745;52.276;10.528;2023-06-05T08:22:01;4.82;;;2.30;;
48935;SDS011;34745;52.276;10.528;2023-06-05T08:24:31;2.10;;;2.00;;
48935;SDS011;34745;52.276;10.528;2023-06-05T08:26:58;4.10;;;2.00;;
48935;SDS011;34745;52.276;10.528;2023-06-05T08:29:27;4.30;;;2.13;;
48935;SDS011;34745;52.276;10.528;2023-06-05T08:31:56;3.35;;;1.80;;
48935;SDS011;34745;52.276;10.528;2023-06-05T08:34:24;5.28;;;2.30;;
48935;SDS011;34745;52.276;10.528;2023-06-05T08:36:52;4.90;;;2.40;;
48935;SDS011;34745;52.276;10.528;2023-06-05T08:39:19;5.65;;;2.25;;
48935;SDS011;34745;52.276;10.528;2023-06-05T08:41:48;3.42;;;2.28;;
48935;SDS011;34745;52.276;10.528;2023-06-05T08:44:17;4.55;;;2.05;;
48935;SDS011;34745;52.276;10.528;2023-06-05T08:46:44;3.90;;;2.15;;
48935;SDS011;34745;52.276;10.528;2023-06-05T08:49:14;3.55;;;1.83;;
48935;SDS011;34745;52.276;10.528;2023-06-05T08:51:47;5.30;;;2.50;;
48935;SDS011;34745;52.276;10.528;2023-06-05T08:54:17;2.05;;;1.95;;
48935;SDS011;34745;52.276;10.528;2023-06-05T08:56:46;2.17;;;1.98;;
48935;SDS011;34745;52.276;10.528;2023-06-05T08:59:14;8.27;;;2.10;;
48935;SDS011;34745;52.276;10.528;2023-06-05T09:01:42;4.18;;;2.10;;
48935;SDS011;34745;52.276;10.528;2023-06-05T09:04:10;3.13;;;1.85;;
48935;SDS011;34745;52.276;10.528;2023-06-05T09:06:39;2.58;;;1.60;;
48935;SDS011;34745;52.276;10.528;2023-06-05T09:09:06;6.00;;;1.80;;
48935;SDS011;34745;52.276;10.528;2023-06-05T09:11:33;4.68;;;2.10;;
48935;SDS011;34745;52.276;10.528;2023-06-05T09:14:01;4.13;;;1.80;;
48935;SDS011;34745;52.276;10.528;2023-06-05T09:16:32;2.30;;;1.80;;
48935;SDS011;34745;52.276;10.528;2023-06-05T09:19:00;3.67;;;1.85;;
48935;SDS011;34745;52.276;10.528;2023-06-05T09:21:29;6.85;;;2.08;;
48935;SDS011;34745;52.276;10.528;2023-06-05T09:24:11;3.20;;;1.85;;
48935;SDS011;34745;52.276;10.528;2023-06-05T09:26:52;2.88;;;1.90;;
48935;SDS011;34745;52.276;10.528;2023-06-05T09:29:22;6.68;;;2.13;;
48935;SDS011;34745;52.276;10.528;2023-06-05T09:31:51;3.58;;;2.17;;
48935;SDS011;34745;52.276;10.528;2023-06-05T09:34:25;3.53;;;1.95;;
48935;SDS011;34745;52.276;10.528;2023-06-05T09:36:54;4.85;;;2.00;;
48935;SDS011;34745;52.276;10.528;2023-06-05T09:39:25;3.63;;;1.98;;
48935;SDS011;34745;52.276;10.528;2023-06-05T09:41:53;5.63;;;2.10;;
48935;SDS011;34745;52.276;10.528;2023-06-05T09:44:21;1.83;;;1.67;;
48935;SDS011;34745;52.276;10.528;2023-06-05T09:46:50;3.97;;;1.80;;
48935;SDS011;34745;52.276;10.528;2023-06-05T09:49:19;4.28;;;1.98;;
48935;SDS011;34745;52.276;10.528;2023-06-05T09:51:47;5.22;;;1.83;;
48935;SDS011;34745;52.276;10.528;2023-06-05T09:54:14;2.60;;;1.60;;
48935;SDS011;34745;52.276;10.528;2023-06-05T09:56:46;9.48;;;4.68;;
48935;SDS011;34745;52.276;10.528;2023-06-05T09:59:18;7.65;;;5.32;;
48935;SDS011;34745;52.276;10.528;2023-06-05T10:01:50;3.00;;;2.60;;
48935;SDS011;34745;52.276;10.528;2023-06-05T10:04:20;3.95;;;1.60;;
48935;SDS011;34745;52.276;10.528;2023-06-05T10:06:50;3.28;;;2.00;;
48935;SDS011;34745;52.276;10.528;2023-06-05T10:09:18;2.47;;;1.83;;
48935;SDS011;34745;52.276;10.528;2023-06-05T10:11:48;5.20;;;2.00;;
48935;SDS011;34745;52.276;10.528;2023-06-05T10:14:16;5.50;;;2.30;;
48935;SDS011;34745;52.276;10.528;2023-06-05T10:16:48;5.72;;;2.10;;
48935;SDS011;34745;52.276;10.528;2023-06-05T10:19:17;4.72;;;2.80;;
48935;SDS011;34745;52.276;10.528;2023-06-05T10:21:46;3.58;;;1.98;;
48935;SDS011;34745;52.276;10.528;2023-06-05T10:24:14;3.60;;;2.15;;
48935;SDS011;34745;52.276;10.528;2023-06-05T10:29:59;4.82;;;2.03;;
48935;SDS011;34745;52.276;10.528;2023-06-05T10:32:41;4.57;;;2.10;;
48935;SDS011;34745;52.276;10.528;2023-06-05T10:35:25;4.53;;;1.92;;
48935;SDS011;34745;52.276;10.528;2023-06-05T10:38:15;8.00;;;2.08;;
48935;SDS011;34745;52.276;10.528;2023-06-05T10:40:44;3.83;;;2.10;;
48935;SDS011;34745;52.276;10.528;2023-06-05T10:43:25;2.78;;;1.95;;
48935;SDS011;34745;52.276;10.528;2023-06-05T10:45:55;2.05;;;1.80;;
48935;SDS011;34745;52.276;10.528;2023-06-05T10:51:36;10.02;;;2.28;;
48935;SDS011;34745;52.276;10.528;2023-06-05T10:54:06;2.70;;;2.20;;
48935;SDS011;34745;52.276;10.528;2023-06-05T10:59:27;2.17;;;1.90;;
48935;SDS011;34745;52.276;10.528;2023-06-05T11:05:02;8.20;;;2.15;;
48935;SDS011;34745;52.276;10.528;2023-06-05T11:07:30;5.40;;;2.15;;
48935;SDS011;34745;52.276;10.528;2023-06-05T11:10:04;4.10;;;1.90;;
48935;SDS011;34745;52.276;10.528;2023-06-05T11:15:33;5.03;;;2.28;;
48935;SDS011;34745;52.276;10.528;2023-06-05T11:18:29;4.57;;;1.83;;
48935;SDS011;34745;52.276;10.528;2023-06-05T11:20:58;3.78;;;2.00;;
48935;SDS011;34745;52.276;10.528;2023-06-05T11:23:27;4.65;;;2.08;;
48935;SDS011;34745;52.276;10.528;2023-06-05T11:25:56;7.38;;;2.00;;
48935;SDS011;34745;52.276;10.528;2023-06-05T11:28:36;2.58;;;2.20;;
48935;SDS011;34745;52.276;10.528;2023-06-05T11:31:04;7.07;;;1.85;;
48935;SDS011;34745;52.276;10.528;2023-06-05T11:33:34;6.60;;;2.10;;
48935;SDS011;34745;52.276;10.528;2023-06-05T11:36:01;3.63;;;2.25;;
48935;SDS011;34745;52.276;10.528;2023-06-05T11:38:31;1.80;;;1.70;;
48935;SDS011;34745;52.276;10.528;2023-06-05T11:40:58;6.43;;;2.13;;
48935;SDS011;34745;52.276;10.528;2023-06-05T11:43:26;3.35;;;2.10;;
48935;SDS011;34745;52.276;10.528;2023-06-05T11:45:53;2.67;;;1.80;;
48935;SDS011;34745;52.276;10.528;2023-06-05T11:48:22;2.67;;;1.65;;
48935;SDS011;34745;52.276;10.528;2023-06-05T11:50:54;3.25;;;1.90;;
48935;SDS011;34745;52.276;10.528;2023-06-05T11:53:24;5.57;;;1.80;;
48935;SDS011;34745;52.276;10.528;2023-06-05T11:55:51;3.03;;;1.60;;
48935;SDS011;34745;52.276;10.528;2023-06-05T11:58:22;5.03;;;1.88;;
48935;SDS011;34745;52.276;10.528;2023-06-05T12:00:50;4.47;;;2.33;;
48935;SDS011;34745;52.276;10.528;2023-06-05T12:03:18;3.60;;;2.00;;
48935;SDS011;34745;52.276;10.528;2023-06-05T12:05:46;2.63;;;1.80;;
48935;SDS011;34745;52.276;10.528;2023-06-05T12:08:22;2.25;;;1.70;;
48935;SDS011;34745;52.276;10.528;2023-06-05T12:10:51;7.93;;;2.00;;
48935;SDS011;34745;52.276;10.528;2023-06-05T12:13:18;1.70;;;1.40;;
48935;SDS011;34745;52.276;10.528;2023-06-05T12:15:55;6.43;;;1.52;;
48935;SDS011;34745;52.276;10.528;2023-06-05T12:18:32;1.80;;;1.70;;
48935;SDS011;34745;52.276;10.528;2023-06-05T12:21:00;1.77;;;1.67;;
48935;SDS011;34745;52.276;10.528;2023-06-05T12:23:29;5.85;;;1.70;;
48935;SDS011;34745;52.276;10.528;2023-06-05T12:25:59;4.75;;;2.25;;
48935;SDS011;34745;52.276;10.528;2023-06-05T12:28:28;2.05;;;1.83;;
48935;SDS011;34745;52.276;10.528;2023-06-05T12:30:55;1.77;;;1.67;;
48935;SDS011;34745;52.276;10.528;2023-06-05T12:33:22;2.10;;;1.90;;
48935;SDS011;34745;52.276;10.528;2023-06-05T12:38:37;2.75;;;1.83;;
48935;SDS011;34745;52.276;10.528;2023-06-05T12:41:05;2.92;;;1.90;;
48935;SDS011;34745;52.276;10.528;2023-06-05T12:43:33;2.17;;;1.73;;
48935;SDS011;34745;52.276;10.528;2023-06-05T12:46:00;1.63;;;1.52;;
48935;SDS011;34745;52.276;10.528;2023-06-05T12:48:28;1.75;;;1.60;;
48935;SDS011;34745;52.276;10.528;2023-06-05T12:50:55;3.38;;;1.50;;
48935;SDS011;34745;52.276;10.528;2023-06-05T12:53:22;4.80;;;2.00;;
48935;SDS011;34745;52.276;10.528;2023-06-05T12:55:51;2.45;;;2.17;;
48935;SDS011;34745;52.276;10.528;2023-06-05T12:58:18;2.63;;;1.83;;
48935;SDS011;34745;52.276;10.528;2023-06-05T13:00:45;4.78;;;1.83;;
48935;SDS011;34745;52.276;10.528;2023-06-05T13:03:12;3.40;;;1.80;;
48935;SDS011;34745;52.276;10.528;2023-06-05T13:05:39;3.22;;;1.45;;
48935;SDS011;34745;52.276;10.528;2023-06-05T13:08:06;4.85;;;2.65;;
48935;SDS011;34745;52.276;10.528;2023-06-05T13:10:34;6.47;;;2.15;;
48935;SDS011;34745;52.276;10.528;2023-06-05T13:13:03;7.60;;;1.98;;
48935;SDS011;34745;52.276;10.528;2023-06-05T13:15:29;2.70;;;1.58;;
48935;SDS011;34745;52.276;10.528;2023-06-05T13:17:57;2.53;;;2.30;;
48935;SDS011;34745;52.276;10.528;2023-06-05T13:20:24;2.13;;;1.77;;
48935;SDS011;34745;52.276;10.528;2023-06-05T13:22:52;4.78;;;2.00;;
48935;SDS011;34745;52.276;10.528;2023-06-05T13:25:19;5.32;;;1.90;;
48935;SDS011;34745;52.276;10.528;2023-06-05T13:27:46;3.53;;;2.05;;
48935;SDS011;34745;52.276;10.528;2023-06-05T13:30:15;5.78;;;2.13;;
48935;SDS011;34745;52.276;10.528;2023-06-05T13:32:42;2.33;;;1.90;;
48935;SDS011;34745;52.276;10.528;2023-06-05T13:35:10;5.25;;;1.58;;
48935;SDS011;34745;52.276;10.528;2023-06-05T13:37:38;4.75;;;1.80;;
48935;SDS011;34745;52.276;10.528;2023-06-05T13:40:05;2.30;;;1.58;;
48935;SDS011;34745;52.276;10.528;2023-06-05T13:42:34;1.95;;;1.80;;
48935;SDS011;34745;52.276;10.528;2023-06-05T13:45:01;2.65;;;1.83;;
48935;SDS011;34745;52.276;10.528;2023-06-05T13:47:29;2.55;;;1.70;;
48935;SDS011;34745;52.276;10.528;2023-06-05T13:49:56;2.35;;;1.70;;
48935;SDS011;34745;52.276;10.528;2023-06-05T13:52:24;2.78;;;1.58;;
48935;SDS011;34745;52.276;10.528;2023-06-05T13:54:51;7.68;;;1.80;;
48935;SDS011;34745;52.276;10.528;2023-06-05T13:57:18;5.53;;;1.70;;
48935;SDS011;34745;52.276;10.528;2023-06-05T13:59:46;2.95;;;1.80;;
48935;SDS011;34745;52.276;10.528;2023-06-05T14:02:13;2.97;;;1.70;;
48935;SDS011;34745;52.276;10.528;2023-06-05T14:04:41;3.00;;;1.73;;
48935;SDS011;34745;52.276;10.528;2023-06-05T14:07:08;4.68;;;1.83;;
48935;SDS011;34745;52.276;10.528;2023-06-05T14:09:35;3.58;;;1.80;;
48935;SDS011;34745;52.276;10.528;2023-06-05T14:12:03;5.20;;;1.85;;
48935;SDS011;34745;52.276;10.528;2023-06-05T14:14:30;2.55;;;1.70;;
48935;SDS011;34745;52.276;10.528;2023-06-05T14:16:57;7.45;;;1.70;;
48935;SDS011;34745;52.276;10.528;2023-06-05T14:19:24;3.67;;;1.60;;
48935;SDS011;34745;52.276;10.528;2023-06-05T14:21:53;1.70;;;1.60;;
48935;SDS011;34745;52.276;10.528;2023-06-05T14:24:20;8.32;;;1.60;;
48935;SDS011;34745;52.276;10.528;2023-06-05T14:26:47;1.67;;;1.58;;
48935;SDS011;34745;52.276;10.528;2023-06-05T14:29:15;3.88;;;1.80;;
48935;SDS011;34745;52.276;10.528;2023-06-05T14:31:42;3.13;;;1.55;;
48935;SDS011;34745;52.276;10.528;2023-06-05T14:34:09;7.53;;;1.75;;
48935;SDS011;34745;52.276;10.528;2023-06-05T14:36:37;2.60;;;1.80;;
48935;SDS011;34745;52.276;10.528;2023-06-05T14:39:05;1.50;;;1.40;;
48935;SDS011;34745;52.276;10.528;2023-06-05T14:41:32;3.28;;;2.00;;
48935;SDS011;34745;52.276;10.528;2023-06-05T14:43:59;2.72;;;1.77;;
48935;SDS011;34745;52.276;10.528;2023-06-05T14:46:46;5.00;;;1.58;;
48935;SDS011;34745;52.276;10.528;2023-06-05T14:49:13;5.68;;;1.92;;
48935;SDS011;34745;52.276;10.528;2023-06-05T14:51:41;5.68;;;2.08;;
48935;SDS011;34745;52.276;10.528;2023-06-05T14:54:09;5.03;;;1.88;;
48935;SDS011;34745;52.276;10.528;2023-06-05T14:56:36;2.05;;;1.40;;
48935;SDS011;34745;52.276;10.528;2023-06-05T14:59:03;4.68;;;1.60;;